Terminal Aerodrome Forecast
Issued by NWS

Home | Current Version | Previous Version | Text Only | Print | Product List | Glossary On
Versions: 1 2 3 4 5 6 7 8 9 10 11 12 13
000
FTAK31 PANC 240534
TAFAIL
TAF
PAIL 240534Z 2406/2506 10019G26KT P6SM -RA BKN035 OVC050
     FM241200 10032G42KT 6SM -RA SCT015 BKN035 OVC050
     FM241800 11031G38KT 3SM -RA BR OVC025
     FM242200 15017G28KT 4SM -RA BR OVC012
     FM250100 18016G24KT P6SM -RA BKN035=

USA.gov is the U.S. government's official web portal to all federal, state and local government web resources and services.